Date,TemperatureHighF,TemperatureAvgF,TemperatureLowF,DewpointHighF,DewpointAvgF,DewpointLowF,HumidityHigh,HumidityAvg,HumidityLow,PressureMaxIn,PressureMinIn,WindSpeedMaxMPH,WindSpeedAvgMPH,GustSpeedMaxMPH,PrecipitationSumIn
2013-3-1,72.9,57.5,45.1,15.8,9.2,3.2,17,15,11,26.31,26.20,20,6,20,0.00
2013-3-2,81.1,62.3,47.3,23.0,13.2,5.0,26,15,9,26.25,26.02,26,6,26,0.00
2013-3-3,70.3,59.6,50.0,28.4,15.9,8.6,41,19,12,26.05,25.81,41,14,41,0.00
2013-3-4,73.2,55.6,42.3,28.4,23.5,15.8,51,31,14,26.02,25.84,23,6,23,0.00
2013-3-5,72.3,57.5,44.2,32.0,25.3,19.4,47,31,14,26.02,25.90,24,7,24,0.00
2013-3-6,70.7,53.5,41.0,30.2,20.7,6.8,62,30,14,25.96,25.84,31,8,31,0.00
2013-3-7,58.3,46.8,38.7,32.0,27.0,17.6,58,46,32,25.90,25.75,35,9,35,0.00
2013-3-8,49.8,40.2,34.3,35.6,25.9,15.8,90,58,28,25.84,25.69,39,13,39,0.08
2013-3-9,62.4,47.8,35.6,30.2,22.1,15.8,76,39,19,26.11,25.84,24,7,24,0.00
2013-3-10,63.9,53.0,42.6,17.6,11.1,5.0,30,19,13,26.20,26.11,29,11,29,0.00
2013-3-11,77.0,58.6,45.1,17.6,9.6,3.2,17,14,10,26.17,25.99,13,4,13,0.00
2013-3-12,79.2,63.7,49.8,23.0,11.7,5.0,16,13,10,26.14,26.02,20,6,20,0.00
2013-3-13,82.4,60.9,52.5,24.8,13.4,6.8,18,15,10,26.17,26.05,17,5,17,0.00
2013-3-14,88.5,70.5,55.4,26.6,17.8,8.6,17,14,10,26.14,25.99,18,5,18,0.00
2013-3-15,89.1,71.8,61.2,26.6,19.1,12.2,19,14,10,26.05,25.87,28,7,28,0.00
2013-3-16,85.8,70.8,57.6,24.8,16.1,8.6,15,12,9,25.90,25.81,21,6,21,0.00
2013-3-17,83.7,64.7,54.7,24.8,12.6,8.6,15,13,9,25.93,25.81,30,8,30,0.00
2013-3-18,83.5,63.4,47.3,23.0,11.9,5.0,17,13,9,25.99,25.84,19,5,19,0.00
2013-3-19,81.0,65.1,53.4,24.8,15.3,6.8,27,15,10,26.05,25.87,26,6,26,0.00
2013-3-20,76.8,63.1,53.8,28.4,22.1,14.0,32,21,13,26.05,25.81,20,6,20,0.00
2013-3-21,83.5,64.1,52.0,24.8,18.2,8.6,30,18,10,25.87,25.69,19,6,19,0.00
2013-3-22,76.1,59.5,46.6,24.8,14.0,6.8,32,18,10,25.87,25.69,24,7,24,0.00
2013-3-23,67.5,56.2,43.7,14.0,8.9,3.2,22,15,12,26.02,25.84,18,6,18,0.00
2013-3-24,76.5,58.3,42.8,15.8,9.6,3.2,18,14,10,26.02,25.87,14,4,14,0.00
2013-3-25,82.8,64.5,50.7,24.8,12.3,6.8,16,13,9,25.99,25.81,24,7,24,0.00
2013-3-26,76.5,64.6,55.9,26.6,14.5,8.6,29,14,10,25.90,25.78,26,9,26,0.00
2013-3-27,73.0,61.6,49.8,35.6,19.4,12.2,44,20,14,25.93,25.81,33,9,33,0.00
2013-3-28,77.4,60.7,49.3,26.6,21.8,17.6,34,23,13,26.02,25.81,22,7,24,0.00
2013-3-29,64.2,54.2,50.0,28.4,24.0,21.2,37,31,25,26.05,25.99,8,3,8,0.00
2013-3-30,85.5,68.6,56.7,32.0,25.0,17.6,32,21,11,25.99,25.93,24,5,24,0.00
2013-3-31,74.1,61.4,47.5,41.0,28.6,19.4,59,31,13,25.99,25.87,29,9,30,0.00